< < Back
Terminal Aerodrome Forecast


Current Version              Previous Versions:   1  2  3  4  5  6  7  8  9  

Terminal Aerodrome Forecast

568
FTUS42 KILM 281723
TAFILM
TAF
KILM 281723Z 2818/2918 13008KT P6SM SCT030 SCT250
     FM290100 VRB04KT P6SM FEW025
     FM291300 08006KT P6SM SCT015 SCT060=

Latest METAR

344
SAUS70 KWBC 282000 RRB
MTRILM
METAR KILM 281953Z AUTO 13008KT 10SM CLR 27/17 A3021 RMK AO2 SLP229
T02670167


USA.gov is the U.S. government's official web portal to all federal, state and local government web resources and services.